sensor_id;sensor_type;location;lat;lon;timestamp;P1;durP1;ratioP1;P2;durP2;ratioP2
74612;SDS011;63119;51.788;8.824;2022-12-18T00:01:40;28.70;;;11.70;;
74612;SDS011;63119;51.788;8.824;2022-12-18T00:04:06;27.67;;;12.00;;
74612;SDS011;63119;51.788;8.824;2022-12-18T00:06:39;20.85;;;10.43;;
74612;SDS011;63119;51.788;8.824;2022-12-18T00:09:05;23.53;;;10.77;;
74612;SDS011;63119;51.788;8.824;2022-12-18T00:11:30;26.03;;;11.27;;
74612;SDS011;63119;51.788;8.824;2022-12-18T00:13:57;27.63;;;11.50;;
74612;SDS011;63119;51.788;8.824;2022-12-18T00:16:24;39.28;;;11.88;;
74612;SDS011;63119;51.788;8.824;2022-12-18T00:18:52;28.25;;;11.85;;
74612;SDS011;63119;51.788;8.824;2022-12-18T00:21:19;27.63;;;11.65;;
74612;SDS011;63119;51.788;8.824;2022-12-18T00:23:46;26.25;;;10.43;;
74612;SDS011;63119;51.788;8.824;2022-12-18T00:26:16;25.65;;;10.90;;
74612;SDS011;63119;51.788;8.824;2022-12-18T00:28:44;29.92;;;11.52;;
74612;SDS011;63119;51.788;8.824;2022-12-18T00:31:11;27.75;;;10.55;;
74612;SDS011;63119;51.788;8.824;2022-12-18T00:33:41;23.63;;;9.93;;
74612;SDS011;63119;51.788;8.824;2022-12-18T00:36:08;17.92;;;8.68;;
74612;SDS011;63119;51.788;8.824;2022-12-18T00:38:34;15.30;;;7.85;;
74612;SDS011;63119;51.788;8.824;2022-12-18T00:41:00;20.88;;;9.73;;
74612;SDS011;63119;51.788;8.824;2022-12-18T00:43:25;22.45;;;8.77;;
74612;SDS011;63119;51.788;8.824;2022-12-18T00:45:51;17.58;;;8.70;;
74612;SDS011;63119;51.788;8.824;2022-12-18T00:48:17;16.42;;;7.75;;
74612;SDS011;63119;51.788;8.824;2022-12-18T00:50:42;16.50;;;8.30;;
74612;SDS011;63119;51.788;8.824;2022-12-18T00:53:07;18.07;;;7.57;;
74612;SDS011;63119;51.788;8.824;2022-12-18T00:55:33;16.63;;;8.07;;
74612;SDS011;63119;51.788;8.824;2022-12-18T00:57:58;19.47;;;8.37;;
74612;SDS011;63119;51.788;8.824;2022-12-18T01:00:23;18.63;;;8.13;;
74612;SDS011;63119;51.788;8.824;2022-12-18T01:02:49;20.33;;;7.50;;
74612;SDS011;63119;51.788;8.824;2022-12-18T01:05:14;15.87;;;6.37;;
74612;SDS011;63119;51.788;8.824;2022-12-18T01:07:40;19.13;;;8.18;;
74612;SDS011;63119;51.788;8.824;2022-12-18T01:10:05;17.83;;;7.83;;
74612;SDS011;63119;51.788;8.824;2022-12-18T01:12:32;17.40;;;6.57;;
74612;SDS011;63119;51.788;8.824;2022-12-18T01:14:57;15.23;;;6.57;;
74612;SDS011;63119;51.788;8.824;2022-12-18T01:17:23;19.92;;;8.05;;
74612;SDS011;63119;51.788;8.824;2022-12-18T01:19:49;14.05;;;6.78;;
74612;SDS011;63119;51.788;8.824;2022-12-18T01:22:14;16.60;;;6.93;;
74612;SDS011;63119;51.788;8.824;2022-12-18T01:24:39;24.10;;;7.77;;
74612;SDS011;63119;51.788;8.824;2022-12-18T01:27:04;16.63;;;7.33;;
74612;SDS011;63119;51.788;8.824;2022-12-18T01:29:30;22.70;;;8.57;;
74612;SDS011;63119;51.788;8.824;2022-12-18T01:31:55;22.17;;;7.38;;
74612;SDS011;63119;51.788;8.824;2022-12-18T01:34:22;17.73;;;7.63;;
74612;SDS011;63119;51.788;8.824;2022-12-18T01:36:48;13.90;;;6.80;;
74612;SDS011;63119;51.788;8.824;2022-12-18T01:39:13;18.20;;;7.33;;
74612;SDS011;63119;51.788;8.824;2022-12-18T01:41:40;20.38;;;6.68;;
74612;SDS011;63119;51.788;8.824;2022-12-18T01:47:12;15.10;;;6.93;;
74612;SDS011;63119;51.788;8.824;2022-12-18T01:50:13;12.30;;;5.22;;
74612;SDS011;63119;51.788;8.824;2022-12-18T01:52:42;15.10;;;5.75;;
74612;SDS011;63119;51.788;8.824;2022-12-18T01:55:10;15.45;;;5.85;;
74612;SDS011;63119;51.788;8.824;2022-12-18T01:57:37;12.25;;;5.70;;
74612;SDS011;63119;51.788;8.824;2022-12-18T02:00:05;13.35;;;6.38;;
74612;SDS011;63119;51.788;8.824;2022-12-18T02:02:43;17.30;;;6.47;;
74612;SDS011;63119;51.788;8.824;2022-12-18T02:05:10;13.27;;;6.20;;
74612;SDS011;63119;51.788;8.824;2022-12-18T02:07:42;11.43;;;5.15;;
74612;SDS011;63119;51.788;8.824;2022-12-18T02:10:14;10.70;;;4.95;;
74612;SDS011;63119;51.788;8.824;2022-12-18T02:15:21;12.35;;;5.15;;
74612;SDS011;63119;51.788;8.824;2022-12-18T02:17:56;11.98;;;5.35;;
74612;SDS011;63119;51.788;8.824;2022-12-18T02:20:45;14.30;;;6.20;;
74612;SDS011;63119;51.788;8.824;2022-12-18T02:26:19;8.52;;;4.20;;
74612;SDS011;63119;51.788;8.824;2022-12-18T02:29:16;12.05;;;5.45;;
74612;SDS011;63119;51.788;8.824;2022-12-18T02:31:57;9.77;;;4.80;;
74612;SDS011;63119;51.788;8.824;2022-12-18T02:34:25;12.02;;;4.93;;
74612;SDS011;63119;51.788;8.824;2022-12-18T02:36:53;11.50;;;4.90;;
74612;SDS011;63119;51.788;8.824;2022-12-18T02:39:20;8.70;;;3.88;;
74612;SDS011;63119;51.788;8.824;2022-12-18T02:41:48;9.35;;;3.92;;
74612;SDS011;63119;51.788;8.824;2022-12-18T02:44:15;8.77;;;4.18;;
74612;SDS011;63119;51.788;8.824;2022-12-18T02:46:41;12.20;;;3.97;;
74612;SDS011;63119;51.788;8.824;2022-12-18T02:57:12;6.43;;;3.38;;
74612;SDS011;63119;51.788;8.824;2022-12-18T02:59:54;8.13;;;3.28;;
74612;SDS011;63119;51.788;8.824;2022-12-18T03:02:26;7.68;;;3.72;;
74612;SDS011;63119;51.788;8.824;2022-12-18T03:05:01;6.80;;;3.45;;
74612;SDS011;63119;51.788;8.824;2022-12-18T03:07:35;6.18;;;3.25;;
74612;SDS011;63119;51.788;8.824;2022-12-18T03:10:04;5.78;;;3.53;;
74612;SDS011;63119;51.788;8.824;2022-12-18T03:12:37;7.57;;;3.08;;
74612;SDS011;63119;51.788;8.824;2022-12-18T03:15:18;11.18;;;3.30;;
74612;SDS011;63119;51.788;8.824;2022-12-18T03:17:52;8.13;;;3.08;;
74612;SDS011;63119;51.788;8.824;2022-12-18T03:20:24;7.20;;;2.83;;
74612;SDS011;63119;51.788;8.824;2022-12-18T03:22:53;6.15;;;2.65;;
74612;SDS011;63119;51.788;8.824;2022-12-18T03:25:25;7.75;;;3.05;;
74612;SDS011;63119;51.788;8.824;2022-12-18T03:27:53;5.28;;;3.13;;
74612;SDS011;63119;51.788;8.824;2022-12-18T03:30:22;6.70;;;3.03;;
74612;SDS011;63119;51.788;8.824;2022-12-18T03:35:26;6.82;;;2.97;;
74612;SDS011;63119;51.788;8.824;2022-12-18T03:37:55;5.22;;;2.85;;
74612;SDS011;63119;51.788;8.824;2022-12-18T03:40:21;6.07;;;3.03;;
74612;SDS011;63119;51.788;8.824;2022-12-18T03:42:55;6.05;;;2.95;;
74612;SDS011;63119;51.788;8.824;2022-12-18T03:45:28;4.18;;;2.65;;
74612;SDS011;63119;51.788;8.824;2022-12-18T03:55:50;4.35;;;2.55;;
74612;SDS011;63119;51.788;8.824;2022-12-18T03:58:17;7.63;;;2.90;;
74612;SDS011;63119;51.788;8.824;2022-12-18T04:00:45;6.47;;;3.17;;
74612;SDS011;63119;51.788;8.824;2022-12-18T04:03:14;7.63;;;2.85;;
74612;SDS011;63119;51.788;8.824;2022-12-18T04:05:42;8.55;;;2.95;;
74612;SDS011;63119;51.788;8.824;2022-12-18T04:08:10;4.93;;;2.92;;
74612;SDS011;63119;51.788;8.824;2022-12-18T04:10:36;8.07;;;2.38;;
74612;SDS011;63119;51.788;8.824;2022-12-18T04:13:01;5.20;;;2.63;;
74612;SDS011;63119;51.788;8.824;2022-12-18T04:15:26;7.37;;;3.10;;
74612;SDS011;63119;51.788;8.824;2022-12-18T04:17:51;10.03;;;3.40;;
74612;SDS011;63119;51.788;8.824;2022-12-18T04:20:17;5.80;;;2.53;;
74612;SDS011;63119;51.788;8.824;2022-12-18T04:22:43;8.73;;;3.22;;
74612;SDS011;63119;51.788;8.824;2022-12-18T04:25:08;8.13;;;3.40;;
74612;SDS011;63119;51.788;8.824;2022-12-18T04:27:33;7.95;;;3.25;;
74612;SDS011;63119;51.788;8.824;2022-12-18T04:29:59;9.20;;;3.13;;
74612;SDS011;63119;51.788;8.824;2022-12-18T04:32:24;7.70;;;3.13;;
74612;SDS011;63119;51.788;8.824;2022-12-18T04:34:50;9.52;;;3.78;;
74612;SDS011;63119;51.788;8.824;2022-12-18T04:37:15;8.33;;;3.13;;
74612;SDS011;63119;51.788;8.824;2022-12-18T04:39:40;5.63;;;2.50;;
74612;SDS011;63119;51.788;8.824;2022-12-18T04:42:06;7.50;;;3.57;;
74612;SDS011;63119;51.788;8.824;2022-12-18T04:44:31;7.17;;;3.23;;
74612;SDS011;63119;51.788;8.824;2022-12-18T04:46:56;7.03;;;3.20;;
74612;SDS011;63119;51.788;8.824;2022-12-18T04:49:21;8.10;;;3.23;;
74612;SDS011;63119;51.788;8.824;2022-12-18T04:51:47;9.13;;;3.38;;
74612;SDS011;63119;51.788;8.824;2022-12-18T04:54:12;8.53;;;3.83;;
74612;SDS011;63119;51.788;8.824;2022-12-18T04:56:37;7.80;;;3.47;;
74612;SDS011;63119;51.788;8.824;2022-12-18T04:59:03;9.30;;;3.83;;
74612;SDS011;63119;51.788;8.824;2022-12-18T05:01:28;6.60;;;3.20;;
74612;SDS011;63119;51.788;8.824;2022-12-18T05:03:53;11.03;;;4.43;;
74612;SDS011;63119;51.788;8.824;2022-12-18T05:06:19;7.67;;;3.33;;
74612;SDS011;63119;51.788;8.824;2022-12-18T05:08:44;9.90;;;3.50;;
74612;SDS011;63119;51.788;8.824;2022-12-18T05:11:11;8.17;;;3.57;;
74612;SDS011;63119;51.788;8.824;2022-12-18T05:13:40;6.43;;;3.15;;
74612;SDS011;63119;51.788;8.824;2022-12-18T05:16:06;11.88;;;3.80;;
74612;SDS011;63119;51.788;8.824;2022-12-18T05:18:31;6.95;;;3.13;;
74612;SDS011;63119;51.788;8.824;2022-12-18T05:20:57;7.13;;;2.95;;
74612;SDS011;63119;51.788;8.824;2022-12-18T05:23:23;5.13;;;2.50;;
74612;SDS011;63119;51.788;8.824;2022-12-18T05:28:19;5.93;;;2.88;;
74612;SDS011;63119;51.788;8.824;2022-12-18T05:30:51;9.18;;;3.28;;
74612;SDS011;63119;51.788;8.824;2022-12-18T05:33:17;9.60;;;3.53;;
74612;SDS011;63119;51.788;8.824;2022-12-18T05:35:44;9.02;;;3.33;;
74612;SDS011;63119;51.788;8.824;2022-12-18T05:38:09;12.50;;;3.90;;
74612;SDS011;63119;51.788;8.824;2022-12-18T05:40:35;9.20;;;3.75;;
74612;SDS011;63119;51.788;8.824;2022-12-18T05:43:01;9.32;;;3.28;;
74612;SDS011;63119;51.788;8.824;2022-12-18T05:45:29;10.50;;;3.85;;
74612;SDS011;63119;51.788;8.824;2022-12-18T05:47:55;8.13;;;3.77;;
74612;SDS011;63119;51.788;8.824;2022-12-18T05:50:20;9.15;;;3.58;;
74612;SDS011;63119;51.788;8.824;2022-12-18T05:52:45;9.27;;;3.87;;
74612;SDS011;63119;51.788;8.824;2022-12-18T05:55:11;9.50;;;3.93;;
74612;SDS011;63119;51.788;8.824;2022-12-18T05:57:36;7.47;;;3.03;;
74612;SDS011;63119;51.788;8.824;2022-12-18T06:00:01;10.37;;;3.77;;
74612;SDS011;63119;51.788;8.824;2022-12-18T06:02:28;11.23;;;3.22;;
74612;SDS011;63119;51.788;8.824;2022-12-18T06:04:53;8.50;;;4.00;;
74612;SDS011;63119;51.788;8.824;2022-12-18T06:07:18;8.30;;;3.57;;
74612;SDS011;63119;51.788;8.824;2022-12-18T06:09:43;9.00;;;3.80;;
74612;SDS011;63119;51.788;8.824;2022-12-18T06:12:09;8.37;;;3.50;;
74612;SDS011;63119;51.788;8.824;2022-12-18T06:14:35;7.35;;;3.00;;
74612;SDS011;63119;51.788;8.824;2022-12-18T06:17:00;7.77;;;3.00;;
74612;SDS011;63119;51.788;8.824;2022-12-18T06:19:26;6.97;;;2.77;;
74612;SDS011;63119;51.788;8.824;2022-12-18T06:21:51;6.23;;;2.70;;
74612;SDS011;63119;51.788;8.824;2022-12-18T06:24:16;7.60;;;3.20;;
74612;SDS011;63119;51.788;8.824;2022-12-18T06:26:42;7.63;;;3.22;;
74612;SDS011;63119;51.788;8.824;2022-12-18T06:29:07;7.00;;;3.30;;
74612;SDS011;63119;51.788;8.824;2022-12-18T06:31:32;7.30;;;3.40;;
74612;SDS011;63119;51.788;8.824;2022-12-18T06:33:58;4.28;;;2.20;;
74612;SDS011;63119;51.788;8.824;2022-12-18T06:36:23;6.37;;;3.50;;
74612;SDS011;63119;51.788;8.824;2022-12-18T06:38:48;9.80;;;4.13;;
74612;SDS011;63119;51.788;8.824;2022-12-18T06:41:15;8.32;;;3.63;;
74612;SDS011;63119;51.788;8.824;2022-12-18T06:43:42;6.55;;;3.13;;
74612;SDS011;63119;51.788;8.824;2022-12-18T06:46:08;9.05;;;3.83;;
74612;SDS011;63119;51.788;8.824;2022-12-18T06:48:34;8.30;;;3.38;;
74612;SDS011;63119;51.788;8.824;2022-12-18T06:50:59;8.40;;;3.80;;
74612;SDS011;63119;51.788;8.824;2022-12-18T06:53:25;10.25;;;3.38;;
74612;SDS011;63119;51.788;8.824;2022-12-18T06:55:50;12.07;;;3.10;;
74612;SDS011;63119;51.788;8.824;2022-12-18T06:58:16;6.47;;;3.00;;
74612;SDS011;63119;51.788;8.824;2022-12-18T07:00:41;5.78;;;2.53;;
74612;SDS011;63119;51.788;8.824;2022-12-18T07:03:07;6.93;;;3.27;;
74612;SDS011;63119;51.788;8.824;2022-12-18T07:05:32;6.17;;;3.30;;
74612;SDS011;63119;51.788;8.824;2022-12-18T07:07:58;7.03;;;3.38;;
74612;SDS011;63119;51.788;8.824;2022-12-18T07:10:23;6.88;;;3.10;;
74612;SDS011;63119;51.788;8.824;2022-12-18T07:12:48;7.83;;;3.57;;
74612;SDS011;63119;51.788;8.824;2022-12-18T07:15:14;6.70;;;2.67;;
74612;SDS011;63119;51.788;8.824;2022-12-18T07:17:39;4.40;;;2.17;;
74612;SDS011;63119;51.788;8.824;2022-12-18T07:20:04;7.13;;;2.87;;
74612;SDS011;63119;51.788;8.824;2022-12-18T07:22:30;8.27;;;3.35;;
74612;SDS011;63119;51.788;8.824;2022-12-18T07:24:55;8.03;;;3.37;;
74612;SDS011;63119;51.788;8.824;2022-12-18T07:27:21;9.00;;;3.73;;
74612;SDS011;63119;51.788;8.824;2022-12-18T07:29:47;6.72;;;3.53;;
74612;SDS011;63119;51.788;8.824;2022-12-18T07:32:12;6.77;;;3.13;;
74612;SDS011;63119;51.788;8.824;2022-12-18T07:34:37;10.47;;;3.60;;
74612;SDS011;63119;51.788;8.824;2022-12-18T07:37:02;9.87;;;3.60;;
74612;SDS011;63119;51.788;8.824;2022-12-18T07:39:28;10.88;;;4.47;;
74612;SDS011;63119;51.788;8.824;2022-12-18T07:41:53;10.83;;;4.63;;
74612;SDS011;63119;51.788;8.824;2022-12-18T07:44:37;7.50;;;3.80;;
74612;SDS011;63119;51.788;8.824;2022-12-18T07:47:03;9.23;;;3.80;;
74612;SDS011;63119;51.788;8.824;2022-12-18T07:49:28;8.48;;;3.17;;
74612;SDS011;63119;51.788;8.824;2022-12-18T07:51:54;6.77;;;3.17;;
74612;SDS011;63119;51.788;8.824;2022-12-18T07:54:21;10.13;;;3.58;;
74612;SDS011;63119;51.788;8.824;2022-12-18T07:56:47;9.07;;;3.60;;
74612;SDS011;63119;51.788;8.824;2022-12-18T07:59:12;7.05;;;3.25;;
74612;SDS011;63119;51.788;8.824;2022-12-18T08:01:37;5.70;;;3.20;;
74612;SDS011;63119;51.788;8.824;2022-12-18T08:04:03;7.30;;;2.67;;
74612;SDS011;63119;51.788;8.824;2022-12-18T08:06:28;7.53;;;3.22;;
74612;SDS011;63119;51.788;8.824;2022-12-18T08:08:54;7.73;;;3.17;;
74612;SDS011;63119;51.788;8.824;2022-12-18T08:11:21;7.43;;;3.28;;
74612;SDS011;63119;51.788;8.824;2022-12-18T08:13:47;7.55;;;3.47;;
74612;SDS011;63119;51.788;8.824;2022-12-18T08:16:13;8.57;;;3.70;;
74612;SDS011;63119;51.788;8.824;2022-12-18T08:18:38;10.83;;;3.50;;
74612;SDS011;63119;51.788;8.824;2022-12-18T08:21:07;6.33;;;3.27;;
74612;SDS011;63119;51.788;8.824;2022-12-18T08:23:40;7.07;;;3.42;;
74612;SDS011;63119;51.788;8.824;2022-12-18T08:26:06;7.90;;;3.30;;
74612;SDS011;63119;51.788;8.824;2022-12-18T08:28:32;6.57;;;2.88;;
74612;SDS011;63119;51.788;8.824;2022-12-18T08:30:57;7.32;;;3.72;;
74612;SDS011;63119;51.788;8.824;2022-12-18T08:33:22;6.93;;;2.93;;
74612;SDS011;63119;51.788;8.824;2022-12-18T08:35:48;6.75;;;2.72;;
74612;SDS011;63119;51.788;8.824;2022-12-18T08:38:13;6.40;;;3.00;;
74612;SDS011;63119;51.788;8.824;2022-12-18T08:40:39;5.40;;;3.08;;
74612;SDS011;63119;51.788;8.824;2022-12-18T08:43:04;5.53;;;2.97;;
74612;SDS011;63119;51.788;8.824;2022-12-18T08:45:48;4.95;;;3.20;;
74612;SDS011;63119;51.788;8.824;2022-12-18T08:48:13;6.35;;;2.92;;
74612;SDS011;63119;51.788;8.824;2022-12-18T08:50:39;8.55;;;4.07;;
74612;SDS011;63119;51.788;8.824;2022-12-18T08:53:05;9.70;;;3.55;;
74612;SDS011;63119;51.788;8.824;2022-12-18T08:55:30;6.47;;;2.95;;
74612;SDS011;63119;51.788;8.824;2022-12-18T08:57:56;8.00;;;2.90;;
74612;SDS011;63119;51.788;8.824;2022-12-18T09:00:21;8.30;;;3.53;;
74612;SDS011;63119;51.788;8.824;2022-12-18T09:02:46;5.20;;;3.07;;
74612;SDS011;63119;51.788;8.824;2022-12-18T09:05:12;5.60;;;2.60;;
74612;SDS011;63119;51.788;8.824;2022-12-18T09:07:37;6.40;;;2.90;;
74612;SDS011;63119;51.788;8.824;2022-12-18T09:10:03;7.20;;;3.17;;
74612;SDS011;63119;51.788;8.824;2022-12-18T09:12:29;4.68;;;2.90;;
74612;SDS011;63119;51.788;8.824;2022-12-18T09:14:55;5.00;;;2.53;;
74612;SDS011;63119;51.788;8.824;2022-12-18T09:17:21;8.07;;;3.42;;
74612;SDS011;63119;51.788;8.824;2022-12-18T09:19:46;6.22;;;3.00;;
74612;SDS011;63119;51.788;8.824;2022-12-18T09:22:12;8.13;;;3.33;;
74612;SDS011;63119;51.788;8.824;2022-12-18T09:24:37;6.43;;;2.67;;
74612;SDS011;63119;51.788;8.824;2022-12-18T09:27:02;5.60;;;2.50;;
74612;SDS011;63119;51.788;8.824;2022-12-18T09:29:27;4.70;;;2.20;;
74612;SDS011;63119;51.788;8.824;2022-12-18T09:31:53;6.22;;;2.78;;
74612;SDS011;63119;51.788;8.824;2022-12-18T09:34:18;5.33;;;3.10;;
74612;SDS011;63119;51.788;8.824;2022-12-18T09:36:46;5.50;;;2.65;;
74612;SDS011;63119;51.788;8.824;2022-12-18T09:39:11;4.83;;;2.50;;
74612;SDS011;63119;51.788;8.824;2022-12-18T09:44:25;5.35;;;3.08;;
74612;SDS011;63119;51.788;8.824;2022-12-18T09:49:34;8.60;;;2.83;;
74612;SDS011;63119;51.788;8.824;2022-12-18T09:54:53;8.27;;;2.45;;
74612;SDS011;63119;51.788;8.824;2022-12-18T09:57:42;6.15;;;2.83;;
74612;SDS011;63119;51.788;8.824;2022-12-18T10:00:16;7.53;;;2.90;;
74612;SDS011;63119;51.788;8.824;2022-12-18T10:02:44;6.30;;;2.45;;
74612;SDS011;63119;51.788;8.824;2022-12-18T10:05:15;4.43;;;2.45;;
74612;SDS011;63119;51.788;8.824;2022-12-18T10:07:45;6.22;;;2.70;;
74612;SDS011;63119;51.788;8.824;2022-12-18T10:10:21;4.53;;;2.35;;
74612;SDS011;63119;51.788;8.824;2022-12-18T10:13:01;5.28;;;2.67;;
74612;SDS011;63119;51.788;8.824;2022-12-18T10:15:45;5.85;;;2.42;;
74612;SDS011;63119;51.788;8.824;2022-12-18T10:18:42;4.35;;;3.03;;
74612;SDS011;63119;51.788;8.824;2022-12-18T10:21:30;5.70;;;2.88;;
74612;SDS011;63119;51.788;8.824;2022-12-18T10:24:12;4.50;;;2.38;;
74612;SDS011;63119;51.788;8.824;2022-12-18T10:26:48;8.27;;;3.22;;
74612;SDS011;63119;51.788;8.824;2022-12-18T10:29:14;6.33;;;2.70;;
74612;SDS011;63119;51.788;8.824;2022-12-18T10:31:40;5.65;;;2.47;;
74612;SDS011;63119;51.788;8.824;2022-12-18T10:34:12;6.40;;;2.70;;
74612;SDS011;63119;51.788;8.824;2022-12-18T10:36:54;5.68;;;2.10;;
74612;SDS011;63119;51.788;8.824;2022-12-18T10:39:21;5.80;;;2.50;;
74612;SDS011;63119;51.788;8.824;2022-12-18T10:41:51;6.03;;;3.40;;
74612;SDS011;63119;51.788;8.824;2022-12-18T10:44:23;6.35;;;3.10;;
74612;SDS011;63119;51.788;8.824;2022-12-18T10:46:53;5.45;;;2.33;;
74612;SDS011;63119;51.788;8.824;2022-12-18T10:49:27;7.15;;;3.05;;
74612;SDS011;63119;51.788;8.824;2022-12-18T10:54:49;6.05;;;3.05;;
74612;SDS011;63119;51.788;8.824;2022-12-18T10:57:20;4.40;;;2.55;;
74612;SDS011;63119;51.788;8.824;2022-12-18T10:59:56;5.85;;;2.50;;
74612;SDS011;63119;51.788;8.824;2022-12-18T11:02:35;4.65;;;2.50;;
74612;SDS011;63119;51.788;8.824;2022-12-18T11:05:02;5.53;;;2.60;;
74612;SDS011;63119;51.788;8.824;2022-12-18T11:07:49;3.83;;;2.13;;
74612;SDS011;63119;51.788;8.824;2022-12-18T11:12:41;6.03;;;2.35;;
74612;SDS011;63119;51.788;8.824;2022-12-18T11:15:13;7.57;;;2.45;;
74612;SDS011;63119;51.788;8.824;2022-12-18T11:17:45;5.55;;;2.47;;
74612;SDS011;63119;51.788;8.824;2022-12-18T11:20:24;5.40;;;2.33;;
74612;SDS011;63119;51.788;8.824;2022-12-18T11:23:04;5.45;;;3.17;;
74612;SDS011;63119;51.788;8.824;2022-12-18T11:25:35;5.45;;;2.25;;
74612;SDS011;63119;51.788;8.824;2022-12-18T11:28:05;5.38;;;2.15;;
74612;SDS011;63119;51.788;8.824;2022-12-18T11:36:48;4.55;;;1.98;;
74612;SDS011;63119;51.788;8.824;2022-12-18T11:39:30;6.43;;;2.65;;
74612;SDS011;63119;51.788;8.824;2022-12-18T11:42:04;5.30;;;2.70;;
74612;SDS011;63119;51.788;8.824;2022-12-18T11:44:42;4.80;;;2.28;;
74612;SDS011;63119;51.788;8.824;2022-12-18T11:47:15;6.10;;;2.33;;
74612;SDS011;63119;51.788;8.824;2022-12-18T11:54:42;4.82;;;2.80;;
74612;SDS011;63119;51.788;8.824;2022-12-18T11:57:17;5.40;;;2.37;;
74612;SDS011;63119;51.788;8.824;2022-12-18T12:00:12;5.57;;;2.35;;
74612;SDS011;63119;51.788;8.824;2022-12-18T12:05:55;7.40;;;2.95;;
74612;SDS011;63119;51.788;8.824;2022-12-18T12:08:45;5.03;;;2.38;;
74612;SDS011;63119;51.788;8.824;2022-12-18T12:11:18;5.82;;;3.05;;
74612;SDS011;63119;51.788;8.824;2022-12-18T12:14:07;6.13;;;2.97;;
74612;SDS011;63119;51.788;8.824;2022-12-18T12:19:22;6.93;;;3.10;;
74612;SDS011;63119;51.788;8.824;2022-12-18T12:22:05;4.72;;;2.83;;
74612;SDS011;63119;51.788;8.824;2022-12-18T12:24:51;7.90;;;3.42;;
74612;SDS011;63119;51.788;8.824;2022-12-18T12:27:45;7.10;;;2.88;;
74612;SDS011;63119;51.788;8.824;2022-12-18T12:30:42;6.53;;;2.60;;
74612;SDS011;63119;51.788;8.824;2022-12-18T12:33:40;4.70;;;2.40;;
74612;SDS011;63119;51.788;8.824;2022-12-18T12:36:29;6.05;;;2.70;;
74612;SDS011;63119;51.788;8.824;2022-12-18T12:39:01;5.18;;;1.95;;
74612;SDS011;63119;51.788;8.824;2022-12-18T12:41:32;5.47;;;3.00;;
74612;SDS011;63119;51.788;8.824;2022-12-18T12:44:23;4.80;;;2.42;;
74612;SDS011;63119;51.788;8.824;2022-12-18T12:46:52;7.05;;;2.40;;
74612;SDS011;63119;51.788;8.824;2022-12-18T12:49:24;8.90;;;3.65;;
74612;SDS011;63119;51.788;8.824;2022-12-18T12:51:57;9.02;;;2.78;;
74612;SDS011;63119;51.788;8.824;2022-12-18T12:54:28;8.25;;;2.90;;
74612;SDS011;63119;51.788;8.824;2022-12-18T13:02:41;6.07;;;2.63;;
74612;SDS011;63119;51.788;8.824;2022-12-18T13:08:06;5.30;;;2.55;;
74612;SDS011;63119;51.788;8.824;2022-12-18T13:10:40;6.75;;;2.80;;
74612;SDS011;63119;51.788;8.824;2022-12-18T13:15:47;6.07;;;2.33;;
74612;SDS011;63119;51.788;8.824;2022-12-18T13:18:14;4.72;;;2.60;;
74612;SDS011;63119;51.788;8.824;2022-12-18T13:25:52;4.03;;;2.20;;
74612;SDS011;63119;51.788;8.824;2022-12-18T13:30:57;7.40;;;2.20;;
74612;SDS011;63119;51.788;8.824;2022-12-18T13:36:52;4.35;;;2.40;;
74612;SDS011;63119;51.788;8.824;2022-12-18T13:41:40;4.47;;;2.10;;
74612;SDS011;63119;51.788;8.824;2022-12-18T13:44:10;5.82;;;2.58;;
74612;SDS011;63119;51.788;8.824;2022-12-18T13:46:52;4.85;;;2.63;;
74612;SDS011;63119;51.788;8.824;2022-12-18T13:49:21;6.10;;;2.80;;
74612;SDS011;63119;51.788;8.824;2022-12-18T13:51:56;7.28;;;3.13;;
74612;SDS011;63119;51.788;8.824;2022-12-18T13:54:35;7.72;;;3.13;;
74612;SDS011;63119;51.788;8.824;2022-12-18T13:57:03;5.15;;;2.78;;
74612;SDS011;63119;51.788;8.824;2022-12-18T13:59:36;6.25;;;2.47;;
74612;SDS011;63119;51.788;8.824;2022-12-18T14:02:13;8.02;;;2.85;;
74612;SDS011;63119;51.788;8.824;2022-12-18T14:04:41;5.55;;;2.45;;
74612;SDS011;63119;51.788;8.824;2022-12-18T14:07:13;7.50;;;3.13;;
74612;SDS011;63119;51.788;8.824;2022-12-18T14:12:40;6.28;;;2.67;;
74612;SDS011;63119;51.788;8.824;2022-12-18T14:17:55;4.72;;;2.85;;
74612;SDS011;63119;51.788;8.824;2022-12-18T14:20:31;5.72;;;2.65;;
74612;SDS011;63119;51.788;8.824;2022-12-18T14:22:57;4.85;;;2.38;;
74612;SDS011;63119;51.788;8.824;2022-12-18T14:25:24;7.97;;;3.03;;
74612;SDS011;63119;51.788;8.824;2022-12-18T14:30:39;5.72;;;3.08;;
74612;SDS011;63119;51.788;8.824;2022-12-18T14:33:10;4.95;;;2.78;;
74612;SDS011;63119;51.788;8.824;2022-12-18T14:35:52;7.45;;;3.03;;
74612;SDS011;63119;51.788;8.824;2022-12-18T14:38:25;5.60;;;2.85;;
74612;SDS011;63119;51.788;8.824;2022-12-18T14:41:00;6.22;;;3.22;;
74612;SDS011;63119;51.788;8.824;2022-12-18T14:43:28;6.57;;;3.22;;
74612;SDS011;63119;51.788;8.824;2022-12-18T14:45:55;8.38;;;3.28;;
74612;SDS011;63119;51.788;8.824;2022-12-18T14:48:24;6.13;;;2.85;;
74612;SDS011;63119;51.788;8.824;2022-12-18T14:50:59;12.25;;;2.85;;
74612;SDS011;63119;51.788;8.824;2022-12-18T14:53:34;7.03;;;3.28;;
74612;SDS011;63119;51.788;8.824;2022-12-18T14:56:03;6.57;;;3.13;;
74612;SDS011;63119;51.788;8.824;2022-12-18T14:58:38;8.23;;;3.90;;
74612;SDS011;63119;51.788;8.824;2022-12-18T15:01:04;5.78;;;3.03;;
74612;SDS011;63119;51.788;8.824;2022-12-18T15:03:29;5.80;;;3.28;;
74612;SDS011;63119;51.788;8.824;2022-12-18T15:05:55;9.00;;;3.13;;
74612;SDS011;63119;51.788;8.824;2022-12-18T15:08:36;6.82;;;3.83;;
74612;SDS011;63119;51.788;8.824;2022-12-18T15:11:02;7.50;;;3.63;;
74612;SDS011;63119;51.788;8.824;2022-12-18T15:13:28;9.32;;;4.47;;
74612;SDS011;63119;51.788;8.824;2022-12-18T15:15:54;5.57;;;3.13;;
74612;SDS011;63119;51.788;8.824;2022-12-18T15:18:32;7.85;;;3.97;;
74612;SDS011;63119;51.788;8.824;2022-12-18T15:21:10;8.05;;;3.30;;
74612;SDS011;63119;51.788;8.824;2022-12-18T15:26:09;7.88;;;3.38;;
74612;SDS011;63119;51.788;8.824;2022-12-18T15:31:22;12.15;;;4.43;;
74612;SDS011;63119;51.788;8.824;2022-12-18T15:36:17;6.38;;;3.58;;
74612;SDS011;63119;51.788;8.824;2022-12-18T15:38:47;6.63;;;3.42;;
74612;SDS011;63119;51.788;8.824;2022-12-18T15:41:14;11.23;;;4.72;;
74612;SDS011;63119;51.788;8.824;2022-12-18T15:43:41;7.15;;;3.17;;
74612;SDS011;63119;51.788;8.824;2022-12-18T15:46:20;7.38;;;3.78;;
74612;SDS011;63119;51.788;8.824;2022-12-18T15:48:48;10.80;;;4.75;;
74612;SDS011;63119;51.788;8.824;2022-12-18T15:53:55;7.88;;;4.03;;
74612;SDS011;63119;51.788;8.824;2022-12-18T15:56:23;8.80;;;3.83;;
74612;SDS011;63119;51.788;8.824;2022-12-18T15:59:16;7.80;;;4.25;;
74612;SDS011;63119;51.788;8.824;2022-12-18T16:01:48;7.65;;;4.00;;
74612;SDS011;63119;51.788;8.824;2022-12-18T16:04:16;8.77;;;4.60;;
74612;SDS011;63119;51.788;8.824;2022-12-18T16:06:45;11.05;;;4.70;;
74612;SDS011;63119;51.788;8.824;2022-12-18T16:09:10;10.88;;;4.88;;
74612;SDS011;63119;51.788;8.824;2022-12-18T16:11:36;9.27;;;4.83;;
74612;SDS011;63119;51.788;8.824;2022-12-18T16:14:16;6.85;;;3.80;;
74612;SDS011;63119;51.788;8.824;2022-12-18T16:19:09;10.68;;;4.22;;
74612;SDS011;63119;51.788;8.824;2022-12-18T16:21:34;8.60;;;4.60;;
74612;SDS011;63119;51.788;8.824;2022-12-18T16:24:00;9.15;;;4.38;;
74612;SDS011;63119;51.788;8.824;2022-12-18T16:26:25;11.47;;;4.67;;
74612;SDS011;63119;51.788;8.824;2022-12-18T16:28:50;12.23;;;4.37;;
74612;SDS011;63119;51.788;8.824;2022-12-18T16:31:15;12.03;;;5.57;;
74612;SDS011;63119;51.788;8.824;2022-12-18T16:33:41;13.63;;;4.87;;
74612;SDS011;63119;51.788;8.824;2022-12-18T16:36:06;12.40;;;5.57;;
74612;SDS011;63119;51.788;8.824;2022-12-18T16:38:32;11.52;;;5.30;;
74612;SDS011;63119;51.788;8.824;2022-12-18T16:40:58;11.27;;;5.50;;
74612;SDS011;63119;51.788;8.824;2022-12-18T16:43:41;11.30;;;5.28;;